createdAt,value
2023-03-21T00:00:57.288Z,101516.50
2023-03-21T00:03:24.153Z,101519.53
2023-03-21T00:05:53.945Z,101517.78
2023-03-21T00:08:23.351Z,101508.34
2023-03-21T00:11:01.289Z,101514.34
2023-03-21T00:13:32.649Z,101507.44
2023-03-21T00:16:18.774Z,101504.94
2023-03-21T00:18:52.660Z,101501.47
2023-03-21T00:21:41.068Z,101485.06
2023-03-21T00:24:08.281Z,101486.13
2023-03-21T00:26:35.725Z,101463.16
2023-03-21T00:29:04.938Z,101480.19
2023-03-21T00:31:31.723Z,101483.66
2023-03-21T00:33:58.377Z,101477.75
2023-03-21T00:36:26.193Z,101462.59
2023-03-21T00:38:53.273Z,101463.00
2023-03-21T00:41:39.242Z,101471.88
2023-03-21T00:44:08.197Z,101469.31
2023-03-21T00:46:44.044Z,101465.91
2023-03-21T00:49:20.983Z,101464.19
2023-03-21T00:51:51.329Z,101455.34
2023-03-21T00:54:20.696Z,101465.13
2023-03-21T00:56:49.611Z,101464.31
2023-03-21T00:59:16.750Z,101460.84
2023-03-21T01:01:44.030Z,101458.16
2023-03-21T01:04:14.712Z,101409.53
2023-03-21T01:06:42.938Z,101445.88
2023-03-21T01:09:19.491Z,101445.72
2023-03-21T01:11:49.426Z,101449.03
2023-03-21T01:14:22.903Z,101441.84
2023-03-21T01:16:54.082Z,101445.19
2023-03-21T01:19:40.664Z,101427.75
2023-03-21T01:22:13.214Z,101420.66
2023-03-21T01:24:53.887Z,101426.78
2023-03-21T01:27:26.042Z,101423.19
2023-03-21T01:29:55.336Z,101409.88
2023-03-21T01:32:21.963Z,101409.84
2023-03-21T01:34:51.648Z,101394.44
2023-03-21T01:37:20.707Z,101418.78
2023-03-21T01:39:47.317Z,101416.06
2023-03-21T01:42:17.153Z,101415.22
2023-03-21T01:44:57.943Z,101410.78
2023-03-21T01:47:25.660Z,101409.78
2023-03-21T01:49:59.323Z,101394.44
2023-03-21T01:52:37.619Z,101407.50
2023-03-21T01:55:12.230Z,101399.59
2023-03-21T01:58:02.377Z,101403.00
2023-03-21T02:00:32.916Z,101388.03
2023-03-21T02:03:13.673Z,101388.19
2023-03-21T02:05:56.225Z,101382.91
2023-03-21T02:08:30.545Z,101390.63
2023-03-21T02:11:05.414Z,101393.31
2023-03-21T02:13:32.074Z,101390.69
2023-03-21T02:15:58.645Z,101384.63
2023-03-21T02:18:34.299Z,101387.22
2023-03-21T02:21:48.425Z,101380.31
2023-03-21T02:24:29.959Z,101382.06
2023-03-21T02:27:08.922Z,101359.22
2023-03-21T02:29:48.525Z,101364.84
2023-03-21T02:32:38.022Z,101360.53
2023-03-21T02:35:23.660Z,101348.47
2023-03-21T02:38:01.117Z,101335.22
2023-03-21T02:40:46.697Z,101345.25
2023-03-21T02:43:23.704Z,101339.97
2023-03-21T02:45:55.453Z,101344.34
2023-03-21T02:48:41.085Z,101349.56
2023-03-21T02:51:21.181Z,101339.91
2023-03-21T02:54:20.004Z,101331.34
2023-03-21T02:56:41.584Z,101295.13
2023-03-21T02:59:08.954Z,101325.31
2023-03-21T03:01:35.801Z,101344.59
2023-03-21T03:04:04.971Z,101317.56
2023-03-21T03:06:49.252Z,101299.69
2023-03-21T03:09:28.495Z,101316.41
2023-03-21T03:12:24.137Z,101315.81
2023-03-21T03:15:04.426Z,101321.03
2023-03-21T03:17:58.798Z,101328.75
2023-03-21T03:20:25.472Z,101327.84
2023-03-21T03:23:04.589Z,101321.69
2023-03-21T03:25:49.144Z,101313.88
2023-03-21T03:28:20.418Z,101304.25
2023-03-21T03:31:07.073Z,101309.31
2023-03-21T03:33:38.555Z,101310.91
2023-03-21T03:36:09.426Z,101268.22
2023-03-21T03:38:41.721Z,101293.22
2023-03-21T03:41:19.544Z,101304.28
2023-03-21T03:43:51.273Z,101300.88
2023-03-21T03:46:53.253Z,101296.25
2023-03-21T03:49:26.637Z,101294.28
2023-03-21T03:51:59.111Z,101289.78
2023-03-21T03:54:37.150Z,101286.22
2023-03-21T03:57:05.443Z,101287.91
2023-03-21T03:59:36.042Z,101284.34
2023-03-21T04:02:03.510Z,101273.56
2023-03-21T04:04:31.953Z,101280.41
2023-03-21T04:07:03.626Z,101290.03
2023-03-21T04:09:43.657Z,101269.13
2023-03-21T04:12:15.514Z,101268.22
2023-03-21T04:14:47.216Z,101268.31
2023-03-21T04:17:14.866Z,101257.72
2023-03-21T04:19:45.691Z,101264.97
2023-03-21T04:22:12.983Z,101266.66
2023-03-21T04:24:40.040Z,101236.41
2023-03-21T04:27:06.781Z,101268.31
2023-03-21T04:29:33.766Z,101257.91
2023-03-21T04:32:01.473Z,101244.84
2023-03-21T04:34:28.437Z,101231.34
2023-03-21T04:36:58.303Z,101250.03
2023-03-21T04:39:27.292Z,101242.22
2023-03-21T04:41:54.039Z,101245.69
2023-03-21T04:44:21.063Z,101206.09
2023-03-21T04:46:47.723Z,101242.31
2023-03-21T04:49:14.324Z,101233.66
2023-03-21T04:51:44.064Z,101215.06
2023-03-21T04:56:38.578Z,101225.91
2023-03-21T04:59:14.584Z,101221.66
2023-03-21T05:01:43.725Z,101214.81
2023-03-21T05:04:11.979Z,101214.97
2023-03-21T05:06:39.459Z,101212.44
2023-03-21T05:09:07.134Z,101196.47
2023-03-21T05:11:39.698Z,101216.94
2023-03-21T05:14:07.981Z,101211.72
2023-03-21T05:16:36.528Z,101196.00
2023-03-21T05:19:03.927Z,101197.91
2023-03-21T05:21:41.794Z,101191.81
2023-03-21T05:24:12.346Z,101190.06
2023-03-21T05:26:40.597Z,101200.63
2023-03-21T05:29:09.923Z,101197.97
2023-03-21T05:31:39.333Z,101183.72
2023-03-21T05:34:10.507Z,101187.97
2023-03-21T05:36:39.830Z,101192.75
2023-03-21T05:39:06.831Z,101185.03
2023-03-21T05:41:33.655Z,101180.53
2023-03-21T05:44:00.942Z,101185.91
2023-03-21T05:46:27.937Z,101185.84
2023-03-21T05:48:57.066Z,101187.56
2023-03-21T05:51:26.020Z,101149.78
2023-03-21T05:53:52.819Z,101173.44
2023-03-21T05:56:24.272Z,101163.88
2023-03-21T05:58:51.981Z,101183.31
2023-03-21T06:01:19.007Z,101183.38
2023-03-21T06:03:45.982Z,101179.13
2023-03-21T06:06:12.834Z,101178.06
2023-03-21T06:08:39.652Z,101178.19
2023-03-21T06:11:18.133Z,101177.44
2023-03-21T06:13:44.797Z,101182.69
2023-03-21T06:16:11.492Z,101187.88
2023-03-21T06:18:38.170Z,101182.69
2023-03-21T06:21:04.910Z,101170.38
2023-03-21T06:23:31.711Z,101164.06
2023-03-21T06:26:01.425Z,101178.19
2023-03-21T06:28:28.133Z,101160.50
2023-03-21T06:30:54.761Z,101196.06
2023-03-21T06:33:23.524Z,101188.97
2023-03-21T06:35:55.282Z,101147.56
2023-03-21T06:38:25.779Z,101191.88
2023-03-21T06:40:52.451Z,101186.66
2023-03-21T06:43:21.580Z,101193.91
2023-03-21T06:45:48.245Z,101190.53
2023-03-21T06:48:15.093Z,101177.47
2023-03-21T06:50:41.914Z,101192.38
2023-03-21T06:53:10.935Z,101186.28
2023-03-21T06:55:38.275Z,101186.34
2023-03-21T06:58:05.093Z,101174.16
2023-03-21T07:00:34.141Z,101175.03
2023-03-21T07:03:03.357Z,101176.00
2023-03-21T07:05:30.007Z,101130.81
2023-03-21T07:08:01.297Z,101175.38
2023-03-21T07:10:28.057Z,101179.03
2023-03-21T07:12:54.739Z,101154.22
2023-03-21T07:15:21.979Z,101159.81
2023-03-21T07:17:48.629Z,101169.91
2023-03-21T07:20:15.324Z,101158.63
2023-03-21T07:22:42.083Z,101167.78
2023-03-21T07:25:10.060Z,101178.34
2023-03-21T07:27:41.062Z,101181.34
2023-03-21T07:30:09.787Z,101191.16
2023-03-21T07:32:38.077Z,101186.22
2023-03-21T07:35:05.935Z,101189.69
2023-03-21T07:37:32.706Z,101196.03
2023-03-21T07:39:59.484Z,101196.97
2023-03-21T07:42:28.349Z,101196.16
2023-03-21T07:44:55.460Z,101190.16
2023-03-21T07:47:22.305Z,101176.94
2023-03-21T07:49:51.281Z,101173.59
2023-03-21T07:52:17.952Z,101161.38
2023-03-21T07:54:47.046Z,101193.38
2023-03-21T07:57:13.946Z,101192.44
2023-03-21T07:59:40.973Z,101182.28
2023-03-21T08:02:07.677Z,101186.81
2023-03-21T08:04:36.822Z,101184.22
2023-03-21T08:07:08.338Z,101180.94
2023-03-21T08:09:35.372Z,101186.53
2023-03-21T08:12:04.445Z,101178.16
2023-03-21T08:14:31.118Z,101168.84
2023-03-21T08:17:00.413Z,101167.38
2023-03-21T08:19:27.119Z,101181.75
2023-03-21T08:21:55.970Z,101157.81
2023-03-21T08:24:22.690Z,101174.06
2023-03-21T08:26:49.483Z,101176.59
2023-03-21T08:29:16.330Z,101187.03
2023-03-21T08:31:45.425Z,101172.25
2023-03-21T08:34:14.410Z,101171.28
2023-03-21T08:36:44.312Z,101170.34
2023-03-21T08:39:11.441Z,101159.66
2023-03-21T08:41:38.736Z,101166.84
2023-03-21T08:44:09.715Z,101165.19
2023-03-21T08:46:36.904Z,101161.66
2023-03-21T08:49:03.664Z,101173.00
2023-03-21T08:51:31.836Z,101175.63
2023-03-21T08:53:58.510Z,101170.97
2023-03-21T08:56:25.435Z,101182.50
2023-03-21T08:58:52.092Z,101172.91
2023-03-21T09:01:19.041Z,101150.00
2023-03-21T09:03:45.921Z,101167.25
2023-03-21T09:06:14.376Z,101156.97
2023-03-21T09:08:42.192Z,101141.28
2023-03-21T09:11:10.117Z,101172.22
2023-03-21T09:13:39.089Z,101168.00
2023-03-21T09:16:06.231Z,101177.78
2023-03-21T09:18:47.348Z,101179.75
2023-03-21T09:21:18.548Z,101187.16
2023-03-21T09:23:47.191Z,101194.28
2023-03-21T09:26:14.359Z,101189.25
2023-03-21T09:28:43.850Z,101182.59
2023-03-21T09:31:12.416Z,101137.06
2023-03-21T09:33:43.256Z,101179.22
2023-03-21T09:36:15.545Z,101169.16
2023-03-21T09:38:46.128Z,101175.50
2023-03-21T09:41:19.108Z,101174.00
2023-03-21T09:43:58.048Z,101171.69
2023-03-21T09:46:33.986Z,101163.91
2023-03-21T09:49:10.018Z,101165.91
2023-03-21T09:51:43.075Z,101170.50
2023-03-21T09:54:48.905Z,101182.91
2023-03-21T09:57:40.222Z,101167.81
2023-03-21T10:00:16.385Z,101183.72
2023-03-21T10:02:49.706Z,101170.47
2023-03-21T10:05:30.577Z,101182.84
2023-03-21T10:08:04.785Z,101190.69
2023-03-21T10:10:39.882Z,101176.56
2023-03-21T10:13:15.892Z,101191.47
2023-03-21T10:15:45.201Z,101179.19
2023-03-21T10:18:23.158Z,101164.91
2023-03-21T10:20:51.618Z,101143.72
2023-03-21T10:23:22.670Z,101187.31
2023-03-21T10:25:55.171Z,101148.69
2023-03-21T10:28:29.131Z,101163.03
2023-03-21T10:31:00.858Z,101152.63
2023-03-21T10:33:34.050Z,101124.50
2023-03-21T10:36:05.398Z,101142.44
2023-03-21T10:38:35.055Z,101169.91
2023-03-21T10:41:04.080Z,101155.88
2023-03-21T10:43:34.921Z,101167.47
2023-03-21T10:46:28.129Z,101164.13
2023-03-21T10:48:55.081Z,101158.00
2023-03-21T10:51:27.035Z,101154.38
2023-03-21T10:54:01.516Z,101152.56
2023-03-21T10:56:35.795Z,101150.03
2023-03-21T10:59:03.686Z,101163.06
2023-03-21T11:01:38.074Z,101132.19
2023-03-21T11:04:15.716Z,101139.34
2023-03-21T11:06:48.117Z,101131.69
2023-03-21T11:09:25.108Z,101127.97
2023-03-21T11:12:10.003Z,101134.41
2023-03-21T11:14:49.665Z,101140.66
2023-03-21T11:17:23.679Z,101129.56
2023-03-21T11:19:54.905Z,101121.94
2023-03-21T11:22:24.566Z,101099.25
2023-03-21T11:24:57.773Z,101126.69
2023-03-21T11:27:29.468Z,101121.50
2023-03-21T11:29:58.093Z,101128.47
2023-03-21T11:32:30.663Z,101139.09
2023-03-21T11:35:01.486Z,101111.78
2023-03-21T11:37:32.110Z,101136.50
2023-03-21T11:40:18.656Z,101120.56
2023-03-21T11:42:49.766Z,101146.97
2023-03-21T11:45:23.152Z,101139.06
2023-03-21T11:47:51.803Z,101156.38
2023-03-21T11:50:24.416Z,101158.88
2023-03-21T11:53:07.402Z,101152.44
2023-03-21T11:55:42.883Z,101154.16
2023-03-21T11:58:14.573Z,101155.78
2023-03-21T12:00:57.361Z,101160.00
2023-03-21T12:03:47.386Z,101160.06
2023-03-21T12:06:37.743Z,101148.72
2023-03-21T12:09:07.248Z,101158.44
2023-03-21T12:11:59.380Z,101104.00
2023-03-21T12:15:06.323Z,101141.34
2023-03-21T12:17:36.104Z,101130.19
2023-03-21T12:20:17.756Z,101125.00
2023-03-21T12:23:22.404Z,101134.78
2023-03-21T12:26:00.968Z,101138.22
2023-03-21T12:28:33.746Z,101107.41
2023-03-21T12:31:18.032Z,101131.94
2023-03-21T12:34:13.202Z,101109.00
2023-03-21T12:37:11.069Z,101126.81
2023-03-21T12:39:43.864Z,101128.63
2023-03-21T12:42:25.602Z,101134.03
2023-03-21T12:45:16.730Z,101124.41
2023-03-21T12:47:58.124Z,101121.88
2023-03-21T12:50:36.896Z,101133.09
2023-03-21T12:53:26.237Z,101136.31
2023-03-21T12:55:56.115Z,101109.66
2023-03-21T12:58:28.370Z,101145.44
2023-03-21T13:00:58.444Z,101126.81
2023-03-21T13:03:39.112Z,101132.78
2023-03-21T13:06:09.602Z,101112.22
2023-03-21T13:08:52.836Z,101121.00
2023-03-21T13:11:25.385Z,101119.25
2023-03-21T13:14:15.469Z,101128.31
2023-03-21T13:16:52.387Z,101125.00
2023-03-21T13:19:22.833Z,101126.09
2023-03-21T13:22:11.781Z,101124.47
2023-03-21T13:24:48.825Z,101112.06
2023-03-21T13:27:27.570Z,101128.75
2023-03-21T13:30:01.010Z,101118.38
2023-03-21T13:32:39.663Z,101120.47
2023-03-21T13:35:10.023Z,101125.00
2023-03-21T13:37:42.125Z,101118.81
2023-03-21T13:40:42.970Z,101126.81
2023-03-21T13:43:47.348Z,101128.41
2023-03-21T13:46:46.947Z,101117.88
2023-03-21T13:49:32.527Z,101116.03
2023-03-21T13:52:04.490Z,101077.84
2023-03-21T13:54:34.421Z,101114.09
2023-03-21T13:57:05.684Z,101118.41
2023-03-21T13:59:35.482Z,101106.25
2023-03-21T14:02:20.526Z,101112.38
2023-03-21T14:05:04.229Z,101112.47
2023-03-21T14:07:36.882Z,101113.34
2023-03-21T14:10:08.938Z,101101.78
2023-03-21T14:12:42.582Z,101116.81
2023-03-21T14:15:19.752Z,101115.94
2023-03-21T14:17:56.605Z,101107.97
2023-03-21T14:20:38.838Z,101123.66
2023-03-21T14:23:07.783Z,101119.16
2023-03-21T14:25:47.323Z,101106.13
2023-03-21T14:28:21.560Z,101077.09
2023-03-21T14:30:54.660Z,101107.16
2023-03-21T14:33:26.109Z,101113.22
2023-03-21T14:35:56.017Z,101108.03
2023-03-21T14:38:29.321Z,101106.16
2023-03-21T14:40:58.436Z,101110.34
2023-03-21T14:43:30.868Z,101118.25
2023-03-21T14:46:01.333Z,101116.47
2023-03-21T14:48:33.416Z,101104.16
2023-03-21T14:51:10.911Z,101123.56
2023-03-21T14:53:41.373Z,101122.66
2023-03-21T14:56:23.325Z,101116.50
2023-03-21T14:58:50.772Z,101118.34
2023-03-21T15:01:33.329Z,101109.59
2023-03-21T15:04:04.318Z,101085.69
2023-03-21T15:06:31.051Z,101117.50
2023-03-21T15:09:00.160Z,101110.56
2023-03-21T15:11:35.423Z,101098.38
2023-03-21T15:14:10.347Z,101069.22
2023-03-21T15:16:38.093Z,101095.69
2023-03-21T15:19:05.651Z,101064.69
2023-03-21T15:21:37.965Z,101084.16
2023-03-21T15:24:22.523Z,101080.53
2023-03-21T15:26:50.935Z,101052.31
2023-03-21T15:29:18.517Z,101072.50
2023-03-21T15:31:50.304Z,101084.69
2023-03-21T15:34:30.106Z,101032.50
2023-03-21T15:37:09.231Z,101079.31
2023-03-21T15:39:36.516Z,101070.50
2023-03-21T15:42:21.316Z,101056.25
2023-03-21T15:44:51.420Z,101051.75
2023-03-21T15:47:39.324Z,101073.59
2023-03-21T15:50:37.895Z,101049.69
2023-03-21T15:53:14.575Z,101072.47
2023-03-21T15:55:48.459Z,101067.94
2023-03-21T15:58:22.413Z,101069.59
2023-03-21T16:00:55.807Z,101026.28
2023-03-21T16:03:35.161Z,101059.72
2023-03-21T16:06:22.144Z,101059.66
2023-03-21T16:09:08.876Z,101049.09
2023-03-21T16:11:41.516Z,101059.44
2023-03-21T16:14:08.967Z,101020.44
2023-03-21T16:16:36.425Z,101037.31
2023-03-21T16:19:03.393Z,101036.47
2023-03-21T16:21:32.073Z,101024.19
2023-03-21T16:23:58.859Z,101040.97
2023-03-21T16:26:30.822Z,101056.69
2023-03-21T16:28:58.045Z,101053.13
2023-03-21T16:31:27.805Z,101055.59
2023-03-21T16:33:57.553Z,101052.81
2023-03-21T16:36:29.315Z,101060.59
2023-03-21T16:38:56.967Z,101054.25
2023-03-21T16:41:27.647Z,101060.50
2023-03-21T16:43:57.167Z,101043.47
2023-03-21T16:46:27.741Z,101000.91
2023-03-21T16:48:57.038Z,101037.97
2023-03-21T16:51:44.077Z,101067.69
2023-03-21T16:54:13.331Z,101062.28
2023-03-21T16:56:44.219Z,101054.25
2023-03-21T16:59:14.048Z,101060.38
2023-03-21T17:01:41.944Z,101032.13
2023-03-21T17:04:09.215Z,101062.84
2023-03-21T17:06:44.825Z,101058.41
2023-03-21T17:09:14.456Z,101046.06
2023-03-21T17:11:41.717Z,101056.69
2023-03-21T17:14:13.869Z,101054.88
2023-03-21T17:16:43.082Z,101031.00
2023-03-21T17:19:19.821Z,101054.00
2023-03-21T17:21:51.126Z,101045.19
2023-03-21T17:24:17.975Z,101041.69
2023-03-21T17:26:44.761Z,101048.59
2023-03-21T17:29:14.323Z,101040.47
2023-03-21T17:31:42.539Z,101028.00
2023-03-21T17:34:09.805Z,101042.88
2023-03-21T17:36:39.930Z,101038.31
2023-03-21T17:39:09.442Z,100995.44
2023-03-21T17:41:36.370Z,101054.31
2023-03-21T17:44:03.469Z,101021.38
2023-03-21T17:46:37.026Z,101022.91
2023-03-21T17:49:04.944Z,101044.97
2023-03-21T17:51:33.179Z,101051.75
2023-03-21T17:54:01.015Z,101055.06
2023-03-21T17:56:34.634Z,101051.41
2023-03-21T17:59:07.527Z,101043.31
2023-03-21T18:01:35.597Z,101035.09
2023-03-21T18:04:04.966Z,101044.75
2023-03-21T18:06:34.212Z,101056.72
2023-03-21T18:09:10.992Z,101044.16
2023-03-21T18:11:39.419Z,101025.44
2023-03-21T18:14:15.735Z,101050.00
2023-03-21T18:16:43.855Z,101053.28
2023-03-21T18:19:13.051Z,101051.38
2023-03-21T18:21:45.734Z,101047.66
2023-03-21T18:24:16.014Z,101049.81
2023-03-21T18:26:43.917Z,101044.34
2023-03-21T18:30:15.798Z,101043.56
2023-03-21T18:32:07.909Z,101010.66
2023-03-21T18:34:38.742Z,101040.66
2023-03-21T18:37:10.029Z,101012.13
2023-03-21T18:39:38.622Z,101046.47
2023-03-21T18:42:06.520Z,101038.28
2023-03-21T18:44:37.525Z,101008.03
2023-03-21T18:47:04.989Z,101035.69
2023-03-21T18:52:18.925Z,101016.94
2023-03-21T18:54:46.050Z,101037.22
2023-03-21T19:00:09.372Z,100970.88
2023-03-21T19:02:41.929Z,101031.16
2023-03-21T19:05:12.648Z,101005.59
2023-03-21T19:07:39.639Z,100997.59
2023-03-21T19:10:17.617Z,101014.47
2023-03-21T19:12:45.978Z,101002.88
2023-03-21T19:15:12.777Z,101020.34
2023-03-21T19:20:31.548Z,101013.28
2023-03-21T19:22:58.386Z,101013.13
2023-03-21T19:25:26.098Z,101010.75
2023-03-21T19:27:52.818Z,100994.94
2023-03-21T19:30:21.958Z,101006.53
2023-03-21T19:32:48.777Z,100996.13
2023-03-21T19:35:18.760Z,100942.06
2023-03-21T19:37:45.756Z,100991.88
2023-03-21T19:40:12.817Z,100972.50
2023-03-21T19:42:40.452Z,100998.25
2023-03-21T19:45:07.857Z,100867.28
2023-03-21T19:47:36.974Z,100994.84
2023-03-21T19:50:43.839Z,101000.09
2023-03-21T19:52:54.120Z,101003.53
2023-03-21T19:55:20.930Z,100980.63
2023-03-21T19:57:49.300Z,100988.59
2023-03-21T20:00:17.389Z,100990.56
2023-03-21T20:02:47.280Z,100997.63
2023-03-21T20:05:16.302Z,100987.22
2023-03-21T20:07:43.007Z,100988.91
2023-03-21T20:10:12.539Z,100982.13
2023-03-21T20:12:39.363Z,100956.53
2023-03-21T20:15:17.346Z,100964.59
2023-03-21T20:17:49.558Z,100961.19
2023-03-21T20:20:18.445Z,100970.75
2023-03-21T20:23:07.327Z,100975.03
2023-03-21T20:25:35.179Z,100975.31
2023-03-21T20:28:25.054Z,100972.69
2023-03-21T20:30:51.620Z,100961.47
2023-03-21T20:33:18.812Z,100959.63
2023-03-21T20:36:35.624Z,100966.69
2023-03-21T20:38:35.663Z,100956.22
2023-03-21T20:41:04.482Z,100927.00
2023-03-21T20:46:21.485Z,100950.06
2023-03-21T20:48:49.805Z,100935.88
2023-03-21T20:52:27.476Z,100948.34
2023-03-21T20:54:07.576Z,100907.97
2023-03-21T20:56:40.042Z,100925.41
2023-03-21T20:59:18.741Z,100933.56
2023-03-21T21:01:54.534Z,100926.69
2023-03-21T21:04:22.968Z,100922.31
2023-03-21T21:06:52.530Z,100938.88
2023-03-21T21:09:19.279Z,100924.78
2023-03-21T21:14:33.520Z,100906.31
2023-03-21T21:17:15.503Z,100923.31
2023-03-21T21:19:50.104Z,100920.66
2023-03-21T21:22:17.558Z,100919.88
2023-03-21T21:24:44.872Z,100911.16
2023-03-21T21:27:12.054Z,100896.16
2023-03-21T21:29:38.884Z,100898.94
2023-03-21T21:32:05.593Z,100901.69
2023-03-21T21:34:32.604Z,100904.22
2023-03-21T21:36:59.209Z,100900.91
2023-03-21T21:39:27.607Z,100900.91
2023-03-21T21:41:54.345Z,100865.53
2023-03-21T21:44:21.359Z,100885.06
2023-03-21T21:46:48.043Z,100848.81
2023-03-21T21:49:14.756Z,100880.78
2023-03-21T21:51:47.776Z,100874.59
2023-03-21T21:54:18.400Z,100879.06
2023-03-21T21:56:48.568Z,100879.06
2023-03-21T21:59:17.823Z,100871.25
2023-03-21T22:01:44.523Z,100857.41
2023-03-21T22:04:12.235Z,100837.13
2023-03-21T22:06:38.872Z,100853.97
2023-03-21T22:09:07.035Z,100842.72
2023-03-21T22:11:36.419Z,100837.59
2023-03-21T22:14:03.716Z,100835.00
2023-03-21T22:16:30.766Z,100799.13
2023-03-21T22:18:57.423Z,100822.91
2023-03-21T22:21:26.518Z,100817.63
2023-03-21T22:23:53.255Z,100815.19
2023-03-21T22:26:19.992Z,100806.41
2023-03-21T22:28:46.700Z,100812.69
2023-03-21T22:31:16.099Z,100799.53
2023-03-21T22:33:45.946Z,100784.66
2023-03-21T22:36:13.050Z,100773.22
2023-03-21T22:38:41.877Z,100788.34
2023-03-21T22:41:08.620Z,100781.41
2023-03-21T22:43:35.566Z,100762.22
2023-03-21T22:46:06.750Z,100769.38
2023-03-21T22:48:35.738Z,100757.09
2023-03-21T22:51:02.437Z,100762.44
2023-03-21T22:53:33.914Z,100749.28
2023-03-21T22:56:00.806Z,100760.69
2023-03-21T22:58:27.619Z,100740.41
2023-03-21T23:00:54.371Z,100753.75
2023-03-21T23:03:21.150Z,100764.22
2023-03-21T23:05:55.146Z,100767.84
2023-03-21T23:08:23.775Z,100752.22
2023-03-21T23:10:50.764Z,100752.03
2023-03-21T23:13:17.425Z,100730.97
2023-03-21T23:15:44.240Z,100753.00
2023-03-21T23:18:15.789Z,100750.44
2023-03-21T23:20:42.868Z,100724.09
2023-03-21T23:23:09.693Z,100750.44
2023-03-21T23:25:39.540Z,100739.88
2023-03-21T23:28:09.668Z,100740.84
2023-03-21T23:30:37.803Z,100752.06
2023-03-21T23:33:04.805Z,100750.34
2023-03-21T23:35:34.806Z,100723.88
2023-03-21T23:38:04.741Z,100739.97
2023-03-21T23:40:33.746Z,100739.06
2023-03-21T23:43:02.965Z,100725.00
2023-03-21T23:45:32.166Z,100738.19
2023-03-21T23:48:01.534Z,100734.72
2023-03-21T23:50:28.198Z,100719.03
2023-03-21T23:52:54.857Z,100730.50
2023-03-21T23:55:23.982Z,100718.31
2023-03-21T23:57:59.050Z,100706.13
